Time;durP1;ratioP1;P1;durP2;ratioP2;P2;SDS_P1;SDS_P2;PMS_P1;PMS_P2;Temp;Humidity;BMP_temperature;BMP_pressure;BME280_temperature;BME280_humidity;BME280_pressure;Samples;Min_cycle;Max_cycle;Signal;HPM_P1;HPM_P2
2021/12/29 00:01:47;;;;;;;4.70;1.53;;;9.30;90.90;;;;;;4949253;28;20460;-74
2021/12/29 00:04:13;;;;;;;7.00;1.50;;;9.30;90.90;;;;;;4947468;28;20187;-75
2021/12/29 00:06:39;;;;;;;3.00;1.27;;;9.30;90.70;;;;;;4947779;28;20196;-74
2021/12/29 00:09:05;;;;;;;2.77;1.30;;;9.30;90.60;;;;;;4945284;28;20490;-75
2021/12/29 00:11:31;;;;;;;4.03;2.30;;;9.30;90.60;;;;;;4943994;28;20216;-73
2021/12/29 00:13:58;;;;;;;4.10;1.20;;;9.40;90.40;;;;;;4952174;28;20419;-73
2021/12/29 00:16:24;;;;;;;5.60;1.60;;;9.40;90.40;;;;;;4950239;28;20467;-73
2021/12/29 00:18:50;;;;;;;7.67;1.97;;;9.40;90.30;;;;;;4951730;28;21195;-74
2021/12/29 00:21:16;;;;;;;7.50;1.40;;;9.40;90.20;;;;;;4952437;28;21024;-74
2021/12/29 00:23:41;;;;;;;5.93;1.60;;;9.40;90.20;;;;;;4953606;28;20220;-74
2021/12/29 00:26:09;;;;;;;4.47;1.30;;;9.40;90.10;;;;;;4948900;28;20670;-74
2021/12/29 00:28:34;;;;;;;2.43;1.30;;;9.40;90.20;;;;;;4948668;28;20505;-75
2021/12/29 00:31:00;;;;;;;3.23;1.53;;;9.50;90.20;;;;;;4951653;28;21233;-76
2021/12/29 00:33:26;;;;;;;1.57;0.87;;;9.50;90.10;;;;;;4947961;28;20195;-75
2021/12/29 00:35:52;;;;;;;5.93;1.40;;;9.40;90.10;;;;;;4944266;28;20188;-74
2021/12/29 00:38:18;;;;;;;2.60;1.30;;;9.40;90.30;;;;;;4948285;28;20726;-74
2021/12/29 00:40:43;;;;;;;3.77;1.07;;;9.40;90.40;;;;;;4950424;28;20528;-74
2021/12/29 00:43:09;;;;;;;7.07;1.50;;;9.40;90.50;;;;;;4942221;28;20212;-75
2021/12/29 00:45:39;;;;;;;3.80;1.30;;;9.40;90.60;;;;;;4944823;28;21027;-76
2021/12/29 00:48:08;;;;;;;1.77;1.17;;;9.40;90.60;;;;;;4949622;28;20223;-72
2021/12/29 00:50:34;;;;;;;6.03;1.20;;;9.30;90.70;;;;;;4946416;28;20428;-74
2021/12/29 00:53:00;;;;;;;2.90;1.20;;;9.30;90.90;;;;;;4965393;28;20450;-73
2021/12/29 00:55:26;;;;;;;5.80;1.20;;;9.30;91.20;;;;;;4944272;28;20200;-73
2021/12/29 00:57:52;;;;;;;8.87;1.30;;;9.20;91.50;;;;;;4951772;28;20467;-73
2021/12/29 01:00:22;;;;;;;3.07;1.20;;;9.20;92.10;;;;;;4942615;28;20478;-74
2021/12/29 01:02:49;;;;;;;3.73;1.23;;;9.10;92.50;;;;;;4960442;28;20439;-73
2021/12/29 01:05:16;;;;;;;2.20;1.33;;;9.00;92.60;;;;;;4959046;28;20466;-77
2021/12/29 01:07:44;;;;;;;3.43;1.17;;;9.00;92.80;;;;;;4958401;28;20981;-73
2021/12/29 01:10:11;;;;;;;6.80;1.27;;;9.00;92.90;;;;;;4947492;28;20808;-73
2021/12/29 01:12:38;;;;;;;3.70;1.07;;;9.00;92.90;;;;;;4956788;28;20451;-72
2021/12/29 01:15:05;;;;;;;3.37;1.10;;;9.00;93.00;;;;;;4960433;28;20419;-73
2021/12/29 01:17:31;;;;;;;3.03;1.20;;;9.00;92.90;;;;;;4959435;28;20440;-73
2021/12/29 01:19:57;;;;;;;3.20;1.17;;;9.00;92.70;;;;;;4960754;28;20765;-71
2021/12/29 01:22:23;;;;;;;5.87;1.00;;;9.00;92.80;;;;;;4954119;28;20255;-72
2021/12/29 01:24:49;;;;;;;1.50;0.80;;;9.00;92.70;;;;;;4949294;28;20538;-75
2021/12/29 01:27:16;;;;;;;2.37;1.20;;;9.10;92.60;;;;;;4946018;28;20451;-71
2021/12/29 01:29:42;;;;;;;3.67;1.00;;;9.10;92.80;;;;;;4958209;28;20431;-73
2021/12/29 01:32:08;;;;;;;4.10;1.13;;;9.10;92.80;;;;;;4962186;28;20831;-72
2021/12/29 01:34:35;;;;;;;4.17;1.00;;;9.10;92.80;;;;;;4951675;28;20472;-73
2021/12/29 01:37:02;;;;;;;5.60;1.20;;;9.10;92.80;;;;;;4964262;28;20438;-72
2021/12/29 01:39:28;;;;;;;2.50;1.23;;;9.10;92.70;;;;;;4961564;28;20466;-77
2021/12/29 01:41:56;;;;;;;4.23;1.00;;;9.10;92.60;;;;;;4959087;28;20439;-76
2021/12/29 01:44:24;;;;;;;2.23;0.90;;;9.20;92.50;;;;;;4952965;28;20447;-76
2021/12/29 01:46:51;;;;;;;1.83;0.90;;;9.20;92.40;;;;;;4943028;28;20489;-76
2021/12/29 01:49:17;;;;;;;3.27;1.03;;;9.20;92.10;;;;;;4951523;28;20523;-77
2021/12/29 01:52:01;;;;;;;1.50;1.00;;;9.20;92.10;;;;;;4949052;28;20452;-74
2021/12/29 01:54:28;;;;;;;7.07;0.93;;;9.20;92.00;;;;;;4957389;28;20432;-77
2021/12/29 01:56:58;;;;;;;1.57;0.83;;;9.30;91.80;;;;;;4955287;28;20921;-76
2021/12/29 01:59:27;;;;;;;3.60;1.17;;;9.30;91.70;;;;;;4954461;28;21072;-76
2021/12/29 02:01:52;;;;;;;1.70;0.80;;;9.40;91.60;;;;;;4948600;28;20530;-76
2021/12/29 02:04:19;;;;;;;2.70;0.97;;;9.30;91.50;;;;;;4951499;28;20891;-75
2021/12/29 02:06:46;;;;;;;3.00;1.40;;;9.30;91.60;;;;;;4946278;28;20424;-74
2021/12/29 02:09:12;;;;;;;3.43;0.90;;;9.30;91.50;;;;;;4947973;28;20447;-75
2021/12/29 02:11:38;;;;;;;2.30;0.70;;;9.30;91.60;;;;;;4941723;28;20908;-76
2021/12/29 02:14:06;;;;;;;2.23;1.00;;;9.30;91.60;;;;;;4950381;28;20431;-75
2021/12/29 02:16:33;;;;;;;1.80;0.90;;;9.30;91.70;;;;;;4942506;28;21309;-75
2021/12/29 02:19:02;;;;;;;8.00;1.00;;;9.30;91.70;;;;;;4941380;28;20562;-74
2021/12/29 02:21:30;;;;;;;2.73;0.90;;;9.30;92.00;;;;;;4937272;28;20464;-73
2021/12/29 02:26:31;;;;;;;2.90;0.87;;;9.30;91.60;;;;;;4940124;28;20774;-75
2021/12/29 02:28:57;;;;;;;1.10;0.90;;;9.30;91.60;;;;;;4941732;28;20980;-75
2021/12/29 02:31:24;;;;;;;0.80;0.70;;;9.30;91.70;;;;;;4946652;28;20821;-75
2021/12/29 02:33:51;;;;;;;1.23;1.03;;;9.30;91.80;;;;;;4943790;28;20463;-75
2021/12/29 02:36:18;;;;;;;2.30;0.70;;;9.30;91.30;;;;;;4943871;28;20442;-75
2021/12/29 02:38:49;;;;;;;2.00;0.80;;;9.40;90.60;;;;;;4943826;28;20475;-76
2021/12/29 02:41:15;;;;;;;1.40;0.80;;;9.40;90.40;;;;;;4947238;28;21295;-76
2021/12/29 02:43:41;;;;;;;1.93;0.97;;;9.40;89.90;;;;;;4940562;28;20456;-75
2021/12/29 02:46:13;;;;;;;2.77;1.13;;;9.60;89.50;;;;;;4947694;28;20806;-76
2021/12/29 02:48:50;;;;;;;1.83;0.77;;;9.50;88.70;;;;;;4938988;28;20432;-77
2021/12/29 02:51:16;;;;;;;1.73;0.70;;;9.50;89.00;;;;;;4944011;28;20906;-76
2021/12/29 02:53:42;;;;;;;1.77;0.70;;;9.50;88.90;;;;;;4943966;28;20478;-75
2021/12/29 02:56:07;;;;;;;1.47;0.90;;;9.50;88.90;;;;;;4941012;28;20214;-76
2021/12/29 02:58:34;;;;;;;1.10;0.70;;;9.50;88.60;;;;;;4942039;28;20558;-77
2021/12/29 03:01:04;;;;;;;2.93;0.67;;;9.60;88.10;;;;;;4949608;28;20192;-75
2021/12/29 03:03:30;;;;;;;1.73;1.00;;;9.60;87.40;;;;;;4940132;28;20424;-76
2021/12/29 03:05:57;;;;;;;1.03;0.67;;;9.60;87.40;;;;;;4946865;28;20511;-76
2021/12/29 03:08:24;;;;;;;1.13;0.70;;;9.60;87.30;;;;;;4939977;28;20895;-77
2021/12/29 03:10:53;;;;;;;2.13;0.70;;;9.70;87.10;;;;;;4951672;28;20431;-75
2021/12/29 03:13:24;;;;;;;1.53;0.80;;;9.70;86.90;;;;;;4947790;28;21169;-76
2021/12/29 03:15:51;;;;;;;0.80;0.70;;;9.70;86.60;;;;;;4944378;28;20431;-76
2021/12/29 03:18:17;;;;;;;0.80;0.80;;;9.80;86.60;;;;;;4943064;28;20463;-72
2021/12/29 03:20:43;;;;;;;1.27;0.63;;;9.80;86.80;;;;;;4956713;28;20443;-75
2021/12/29 03:23:09;;;;;;;2.50;0.70;;;9.80;86.60;;;;;;4955292;28;20448;-76
2021/12/29 03:25:34;;;;;;;2.90;0.80;;;9.80;86.60;;;;;;4946171;28;20431;-74
2021/12/29 03:28:00;;;;;;;2.07;0.70;;;9.80;86.60;;;;;;4943743;28;20196;-77
2021/12/29 03:30:29;;;;;;;2.00;0.80;;;9.80;86.90;;;;;;4947759;28;20451;-77
2021/12/29 03:33:05;;;;;;;1.43;0.80;;;9.80;87.00;;;;;;4941335;28;20210;-78
2021/12/29 03:35:38;;;;;;;2.10;0.60;;;9.80;86.80;;;;;;4954564;28;20453;-77
2021/12/29 03:38:08;;;;;;;0.80;0.60;;;9.80;86.80;;;;;;4951261;28;20806;-74
2021/12/29 03:40:35;;;;;;;0.70;0.60;;;9.90;86.90;;;;;;4951241;28;20450;-74
2021/12/29 03:43:02;;;;;;;0.93;0.67;;;9.90;87.00;;;;;;4950564;28;20451;-76
2021/12/29 03:45:28;;;;;;;1.67;0.70;;;9.80;87.10;;;;;;4945757;28;20454;-76
2021/12/29 03:47:54;;;;;;;0.90;0.80;;;9.80;87.40;;;;;;4944187;28;20435;-75
2021/12/29 03:50:20;;;;;;;0.90;0.80;;;9.90;87.60;;;;;;4964501;28;20195;-75
2021/12/29 03:52:46;;;;;;;1.27;0.70;;;9.90;87.80;;;;;;4947141;28;20232;-73
2021/12/29 03:55:12;;;;;;;0.97;0.50;;;9.90;87.80;;;;;;4957579;28;20446;-75
2021/12/29 03:57:39;;;;;;;1.67;1.00;;;9.80;87.70;;;;;;4955628;28;20475;-75
2021/12/29 04:00:07;;;;;;;0.80;0.70;;;9.90;87.80;;;;;;4950396;28;20455;-75
2021/12/29 04:02:33;;;;;;;1.03;0.70;;;9.90;87.80;;;;;;4949013;28;20884;-75
2021/12/29 04:05:00;;;;;;;1.73;0.70;;;9.90;88.40;;;;;;4947147;28;20451;-75
2021/12/29 04:07:26;;;;;;;1.23;0.50;;;9.90;89.30;;;;;;4948712;28;20192;-75
2021/12/29 04:09:51;;;;;;;1.03;0.60;;;9.80;90.20;;;;;;4950006;28;20515;-73
2021/12/29 04:12:17;;;;;;;0.90;0.70;;;9.70;90.70;;;;;;4952232;28;20215;-76
2021/12/29 04:14:43;;;;;;;1.00;0.63;;;9.60;91.20;;;;;;4948186;28;20196;-76
2021/12/29 04:17:12;;;;;;;1.00;0.60;;;9.60;91.50;;;;;;4944045;28;20192;-76
2021/12/29 04:22:23;;;;;;;0.70;0.50;;;9.50;92.00;;;;;;4949343;28;20465;-77
2021/12/29 04:24:49;;;;;;;1.13;0.70;;;9.50;92.30;;;;;;4945372;28;20846;-73
2021/12/29 04:27:15;;;;;;;1.10;0.60;;;9.50;92.70;;;;;;4950321;28;20420;-76
2021/12/29 04:29:41;;;;;;;1.60;0.70;;;9.40;93.10;;;;;;4945046;28;20433;-74
2021/12/29 04:32:07;;;;;;;0.80;0.60;;;9.40;93.60;;;;;;4955009;28;20524;-76
2021/12/29 04:34:33;;;;;;;0.60;0.50;;;9.30;93.90;;;;;;4956475;28;20459;-76
2021/12/29 04:36:58;;;;;;;1.70;0.60;;;9.20;94.20;;;;;;4951901;28;20183;-75
2021/12/29 04:39:24;;;;;;;1.60;0.70;;;9.20;94.50;;;;;;4949562;28;20239;-75
2021/12/29 04:41:50;;;;;;;1.13;0.80;;;9.20;94.80;;;;;;4953147;28;20251;-75
2021/12/29 04:44:16;;;;;;;2.80;0.70;;;9.30;95.10;;;;;;4944204;28;20702;-73
2021/12/29 04:46:45;;;;;;;1.87;0.67;;;9.30;95.20;;;;;;4944536;28;20189;-75
2021/12/29 04:49:13;;;;;;;5.80;0.80;;;9.30;95.20;;;;;;4944314;28;20248;-76
2021/12/29 04:51:55;;;;;;;3.17;0.70;;;9.40;95.30;;;;;;4948803;28;20997;-76
2021/12/29 04:54:21;;;;;;;2.30;0.80;;;9.40;95.40;;;;;;4950786;28;20438;-77
2021/12/29 04:56:47;;;;;;;1.50;1.03;;;9.30;95.50;;;;;;4946551;28;20423;-75
2021/12/29 04:59:15;;;;;;;2.03;0.80;;;9.30;95.50;;;;;;4945154;28;20215;-76
2021/12/29 05:01:42;;;;;;;2.60;0.90;;;9.30;95.60;;;;;;4944017;28;20543;-75
2021/12/29 05:04:08;;;;;;;1.07;0.60;;;9.30;95.70;;;;;;4948133;28;20472;-77
2021/12/29 05:09:29;;;;;;;1.00;0.93;;;9.30;95.90;;;;;;4928401;28;20429;-74
2021/12/29 05:11:55;;;;;;;2.77;0.80;;;9.40;96.10;;;;;;4944704;28;20447;-75
2021/12/29 05:14:20;;;;;;;1.13;0.70;;;9.40;96.00;;;;;;4951003;28;20204;-75
2021/12/29 05:16:46;;;;;;;1.30;0.90;;;9.30;95.90;;;;;;4949571;28;20236;-73
2021/12/29 05:19:12;;;;;;;2.10;0.90;;;9.20;96.20;;;;;;4944182;28;20214;-76
2021/12/29 05:21:37;;;;;;;3.10;0.87;;;9.00;96.40;;;;;;4950993;28;20262;-77
2021/12/29 05:24:03;;;;;;;6.83;1.90;;;9.10;96.90;;;;;;4953142;28;20224;-77
2021/12/29 05:26:29;;;;;;;1.83;0.80;;;9.10;97.00;;;;;;4952594;28;20207;-76
2021/12/29 05:28:55;;;;;;;2.50;0.90;;;9.10;97.20;;;;;;4952123;28;20436;-74
2021/12/29 05:31:21;;;;;;;3.83;1.20;;;9.00;97.30;;;;;;4952633;28;20211;-75
2021/12/29 05:33:47;;;;;;;1.33;0.90;;;9.00;97.40;;;;;;4952572;28;20262;-75
2021/12/29 05:36:13;;;;;;;1.30;1.00;;;9.00;97.50;;;;;;4947009;28;20184;-78
2021/12/29 05:38:39;;;;;;;4.00;1.20;;;9.00;97.60;;;;;;4949097;28;20470;-76
2021/12/29 05:41:05;;;;;;;3.43;1.60;;;9.00;97.60;;;;;;4946276;28;20847;-76
2021/12/29 05:43:30;;;;;;;1.53;1.23;;;8.90;97.60;;;;;;4947999;28;20543;-77
2021/12/29 05:45:56;;;;;;;1.30;1.20;;;8.90;97.90;;;;;;4940374;28;20188;-76
2021/12/29 05:48:22;;;;;;;2.67;1.30;;;8.80;97.90;;;;;;4943240;28;20187;-77
2021/12/29 05:50:48;;;;;;;2.57;1.50;;;8.80;98.00;;;;;;4941172;28;20223;-78
2021/12/29 05:53:13;;;;;;;2.07;1.20;;;8.80;98.00;;;;;;4947583;28;20203;-77
2021/12/29 05:55:41;;;;;;;2.63;1.10;;;8.80;98.00;;;;;;4949396;28;20215;-75
2021/12/29 05:58:09;;;;;;;0.90;0.90;;;8.80;98.00;;;;;;4947170;28;20204;-77
2021/12/29 06:00:37;;;;;;;5.13;1.67;;;8.90;97.70;;;;;;4951912;28;20427;-76
2021/12/29 06:03:04;;;;;;;5.53;1.23;;;8.90;97.50;;;;;;4949953;28;20446;-76
2021/12/29 06:05:29;;;;;;;4.60;1.60;;;8.90;97.40;;;;;;4941962;28;20425;-74
2021/12/29 06:07:55;;;;;;;2.40;1.23;;;8.90;97.30;;;;;;4949119;28;20989;-77
2021/12/29 06:10:21;;;;;;;1.80;1.03;;;8.90;97.20;;;;;;4941222;28;20812;-76
2021/12/29 06:12:47;;;;;;;1.67;1.00;;;8.90;97.10;;;;;;4945644;28;20295;-76
2021/12/29 06:15:13;;;;;;;1.00;1.00;;;8.90;97.00;;;;;;4944623;28;20219;-77
2021/12/29 06:17:39;;;;;;;3.77;1.10;;;8.90;97.00;;;;;;4945519;28;20415;-76
2021/12/29 06:20:08;;;;;;;3.07;1.33;;;9.00;96.80;;;;;;4941142;28;20490;-75
2021/12/29 06:22:34;;;;;;;1.77;1.10;;;8.90;96.60;;;;;;4948225;28;20454;-77
2021/12/29 06:25:00;;;;;;;2.10;1.10;;;8.90;96.40;;;;;;4952216;28;20892;-75
2021/12/29 06:27:26;;;;;;;1.80;1.20;;;8.90;96.10;;;;;;4952407;28;20424;-75
2021/12/29 06:29:52;;;;;;;2.23;1.00;;;8.90;96.00;;;;;;4951845;28;20191;-75
2021/12/29 06:32:19;;;;;;;2.57;1.20;;;8.90;95.90;;;;;;4952400;28;20452;-77
2021/12/29 06:34:45;;;;;;;3.77;1.10;;;8.90;95.90;;;;;;4951978;28;20431;-74
2021/12/29 06:37:12;;;;;;;13.60;1.63;;;8.90;96.00;;;;;;4952279;28;20438;-76
2021/12/29 06:39:47;;;;;;;5.37;1.30;;;8.90;96.00;;;;;;4953801;28;20479;-75
2021/12/29 06:42:15;;;;;;;4.20;1.40;;;8.90;96.10;;;;;;4952548;28;20522;-75
2021/12/29 06:44:42;;;;;;;2.50;1.30;;;8.90;96.20;;;;;;4952470;28;20457;-74
2021/12/29 06:47:08;;;;;;;3.83;1.40;;;8.90;96.40;;;;;;4943952;28;20790;-75
2021/12/29 06:49:35;;;;;;;3.50;1.40;;;8.90;96.40;;;;;;4955255;28;20431;-75
2021/12/29 06:52:02;;;;;;;2.37;1.60;;;8.90;96.40;;;;;;4952170;28;20451;-75
2021/12/29 06:54:29;;;;;;;5.23;1.30;;;8.90;96.50;;;;;;4953102;28;20435;-74
2021/12/29 06:56:55;;;;;;;3.47;1.27;;;8.90;96.50;;;;;;4954002;28;21583;-78
2021/12/29 06:59:21;;;;;;;1.87;1.00;;;8.90;96.40;;;;;;4951844;28;20479;-76
2021/12/29 07:01:47;;;;;;;2.77;1.07;;;8.90;96.20;;;;;;4952465;28;20452;-75
2021/12/29 07:04:12;;;;;;;0.97;0.90;;;8.90;96.20;;;;;;4951127;28;20942;-76
2021/12/29 07:06:38;;;;;;;2.77;1.00;;;8.90;96.20;;;;;;4947570;28;20192;-76
2021/12/29 07:09:05;;;;;;;2.00;1.00;;;8.90;96.10;;;;;;4946228;28;20191;-76
2021/12/29 07:11:33;;;;;;;1.20;0.80;;;8.90;96.00;;;;;;4951663;28;20497;-76
2021/12/29 07:14:02;;;;;;;1.20;1.00;;;8.90;95.70;;;;;;4951113;28;20419;-76
2021/12/29 07:16:28;;;;;;;2.83;1.90;;;8.90;95.80;;;;;;4946551;28;20428;-74
2021/12/29 07:18:54;;;;;;;6.93;1.63;;;8.90;95.90;;;;;;4950764;28;20502;-77
2021/12/29 07:21:20;;;;;;;2.13;1.20;;;8.90;96.20;;;;;;4948206;28;20497;-75
2021/12/29 07:23:46;;;;;;;3.80;1.37;;;8.80;96.50;;;;;;4943636;28;20188;-74
2021/12/29 07:26:11;;;;;;;3.17;1.70;;;8.80;96.90;;;;;;4955466;28;20528;-77
2021/12/29 07:28:38;;;;;;;5.47;1.50;;;8.80;97.20;;;;;;4955288;28;20192;-74
2021/12/29 07:31:04;;;;;;;3.63;1.77;;;8.70;97.30;;;;;;4955941;28;20188;-76
2021/12/29 07:33:32;;;;;;;2.90;1.20;;;8.70;97.50;;;;;;4954628;28;20780;-78
2021/12/29 07:35:58;;;;;;;1.93;1.30;;;8.70;97.70;;;;;;4949419;28;20440;-76
2021/12/29 07:38:23;;;;;;;1.57;1.20;;;8.70;98.00;;;;;;4950473;28;20498;-76
2021/12/29 07:40:49;;;;;;;7.10;1.60;;;8.70;98.20;;;;;;4949139;28;20251;-77
2021/12/29 07:43:15;;;;;;;3.37;1.60;;;8.80;98.40;;;;;;4951013;28;20267;-75
2021/12/29 07:45:42;;;;;;;3.87;1.30;;;8.90;98.50;;;;;;4943536;28;20217;-73
2021/12/29 07:48:09;;;;;;;2.70;1.30;;;8.90;98.50;;;;;;4950819;28;20519;-78
2021/12/29 07:50:36;;;;;;;5.90;1.40;;;9.00;98.60;;;;;;4947997;28;20436;-74
2021/12/29 07:53:03;;;;;;;5.70;1.80;;;9.10;98.40;;;;;;4953360;28;20969;-75
2021/12/29 07:55:29;;;;;;;7.17;1.53;;;9.10;98.30;;;;;;4952823;28;20816;-76
2021/12/29 07:57:55;;;;;;;2.60;1.23;;;9.10;98.30;;;;;;4948116;28;20435;-76
2021/12/29 08:00:21;;;;;;;2.27;1.20;;;9.00;98.20;;;;;;4953209;28;20439;-77
2021/12/29 08:02:47;;;;;;;2.60;1.07;;;9.00;98.30;;;;;;4946774;28;20456;-75
2021/12/29 08:05:13;;;;;;;1.50;1.10;;;9.10;98.10;;;;;;4947039;28;20185;-76
2021/12/29 08:07:39;;;;;;;5.60;2.03;;;9.10;97.90;;;;;;4950061;28;20726;-78
2021/12/29 08:10:06;;;;;;;1.70;1.00;;;8.90;97.70;;;;;;4945601;28;20435;-77
2021/12/29 08:12:32;;;;;;;2.27;1.23;;;8.80;98.00;;;;;;4949748;28;20208;-76
2021/12/29 08:14:58;;;;;;;2.87;1.40;;;8.80;98.10;;;;;;4948357;28;20506;-77
2021/12/29 08:17:24;;;;;;;2.50;1.20;;;8.70;98.30;;;;;;4949946;28;20427;-77
2021/12/29 08:19:51;;;;;;;1.97;1.60;;;8.70;98.40;;;;;;4943676;28;20542;-75
2021/12/29 08:22:17;;;;;;;2.50;1.70;;;8.60;98.60;;;;;;4949517;28;20593;-78
2021/12/29 08:24:43;;;;;;;3.80;1.97;;;8.60;98.70;;;;;;4954932;28;20882;-74
2021/12/29 08:27:10;;;;;;;3.53;1.93;;;8.60;99.00;;;;;;4954563;28;20416;-74
2021/12/29 08:29:37;;;;;;;8.90;2.00;;;8.60;99.10;;;;;;4953765;28;21006;-76
2021/12/29 08:32:03;;;;;;;2.80;1.50;;;8.70;99.20;;;;;;4952964;28;20495;-76
2021/12/29 08:34:29;;;;;;;1.80;1.00;;;8.70;99.10;;;;;;4953817;28;20424;-78
2021/12/29 08:36:55;;;;;;;3.63;1.50;;;8.70;98.90;;;;;;4957521;28;20429;-75
2021/12/29 08:39:21;;;;;;;2.33;1.03;;;8.80;98.70;;;;;;4949860;28;20691;-74
2021/12/29 08:41:48;;;;;;;1.23;0.87;;;8.80;98.60;;;;;;4951844;28;20447;-74
2021/12/29 08:44:15;;;;;;;3.07;1.20;;;8.80;98.40;;;;;;4953198;28;20443;-74
2021/12/29 08:46:41;;;;;;;3.00;0.90;;;8.90;98.20;;;;;;4944971;28;20499;-75
2021/12/29 08:49:07;;;;;;;1.70;1.67;;;9.00;97.70;;;;;;4942015;28;20473;-73
2021/12/29 08:51:33;;;;;;;5.40;1.33;;;9.00;97.20;;;;;;4958932;28;20450;-75
2021/12/29 08:53:59;;;;;;;1.93;1.20;;;9.10;96.60;;;;;;4946625;28;20423;-73
2021/12/29 08:56:26;;;;;;;2.20;1.10;;;9.20;96.10;;;;;;4947864;28;20427;-75
2021/12/29 08:58:53;;;;;;;2.67;1.20;;;9.10;95.50;;;;;;4952753;28;20467;-74
2021/12/29 09:01:21;;;;;;;1.57;1.20;;;9.10;95.40;;;;;;4952509;28;21338;-74
2021/12/29 09:03:50;;;;;;;3.00;1.20;;;9.20;95.20;;;;;;4947568;28;20450;-76
2021/12/29 09:06:16;;;;;;;2.70;1.10;;;9.20;95.00;;;;;;4944852;28;20424;-74
2021/12/29 09:08:43;;;;;;;2.03;1.20;;;9.30;95.00;;;;;;4947779;28;20436;-71
2021/12/29 09:11:10;;;;;;;1.73;1.10;;;9.30;94.90;;;;;;4946468;28;20489;-72
2021/12/29 09:13:36;;;;;;;1.93;1.40;;;9.40;94.90;;;;;;4943856;28;21241;-74
2021/12/29 09:16:04;;;;;;;3.23;1.30;;;9.50;94.60;;;;;;4947880;28;20439;-73
2021/12/29 09:18:31;;;;;;;3.40;1.40;;;9.50;94.10;;;;;;4939108;28;20551;-73
2021/12/29 09:21:06;;;;;;;9.73;3.30;;;9.60;94.00;;;;;;4944479;28;20426;-74
2021/12/29 09:23:32;;;;;;;11.57;3.03;;;9.60;93.60;;;;;;4946928;28;20434;-74
2021/12/29 09:25:57;;;;;;;2.93;1.60;;;9.60;93.40;;;;;;4948707;28;20459;-74
2021/12/29 09:28:23;;;;;;;5.40;1.77;;;9.60;93.20;;;;;;4939527;28;20558;-74
2021/12/29 09:30:50;;;;;;;2.13;1.30;;;9.60;93.20;;;;;;4948268;28;20196;-74
2021/12/29 09:33:19;;;;;;;1.73;1.13;;;9.60;93.10;;;;;;4945318;28;20246;-74
2021/12/29 09:35:47;;;;;;;1.53;1.17;;;9.60;93.10;;;;;;4950178;28;20962;-75
2021/12/29 09:38:14;;;;;;;6.30;1.60;;;9.70;93.10;;;;;;4956713;28;20489;-74
2021/12/29 09:40:40;;;;;;;1.70;1.07;;;9.70;93.00;;;;;;4951687;28;20443;-74
2021/12/29 09:43:07;;;;;;;3.00;1.60;;;9.70;93.10;;;;;;4945998;28;20868;-73
2021/12/29 09:45:34;;;;;;;2.40;1.30;;;9.70;93.10;;;;;;4943670;28;20258;-74
2021/12/29 09:48:00;;;;;;;3.37;1.40;;;9.70;92.80;;;;;;4945247;28;20440;-72
2021/12/29 09:50:26;;;;;;;1.47;1.07;;;9.70;93.00;;;;;;4941637;28;20544;-73
2021/12/29 09:52:53;;;;;;;2.53;1.40;;;9.80;93.20;;;;;;4947448;28;20195;-73
2021/12/29 09:55:21;;;;;;;2.90;1.73;;;9.90;93.10;;;;;;4950988;28;20451;-72
2021/12/29 09:57:49;;;;;;;6.60;1.60;;;10.00;92.80;;;;;;4942651;28;20428;-71
2021/12/29 10:00:44;;;;;;;4.10;1.33;;;10.10;92.90;;;;;;4943390;28;20519;-74
2021/12/29 10:03:12;;;;;;;5.13;1.93;;;10.10;92.60;;;;;;4936819;28;20538;-71
2021/12/29 10:05:40;;;;;;;1.80;1.63;;;10.20;92.40;;;;;;4943976;28;20432;-71
2021/12/29 10:08:06;;;;;;;1.60;1.53;;;10.30;92.00;;;;;;4951850;28;21293;-71
2021/12/29 10:10:34;;;;;;;2.33;1.20;;;10.30;91.20;;;;;;4944402;28;20425;-72
2021/12/29 10:13:02;;;;;;;2.83;1.33;;;10.20;90.70;;;;;;4946797;28;20213;-72
2021/12/29 10:15:40;;;;;;;2.20;1.33;;;10.10;91.00;;;;;;4945365;28;20471;-72
2021/12/29 10:18:13;;;;;;;5.50;1.40;;;10.10;91.10;;;;;;4940128;28;21297;-73
2021/12/29 10:20:59;;;;;;;2.77;2.00;;;10.20;91.00;;;;;;4942941;28;20466;-72
2021/12/29 10:23:31;;;;;;;3.00;1.70;;;10.10;91.20;;;;;;4943417;28;20963;-72
2021/12/29 10:26:14;;;;;;;2.57;1.80;;;10.10;91.50;;;;;;4947522;28;21077;-74
2021/12/29 10:28:43;;;;;;;4.93;2.23;;;10.20;91.70;;;;;;4952610;28;20431;-73
2021/12/29 10:31:13;;;;;;;2.83;1.83;;;10.20;91.80;;;;;;4952985;28;20436;-73
2021/12/29 10:33:57;;;;;;;3.63;1.80;;;10.20;91.70;;;;;;4947252;28;20443;-75
2021/12/29 10:36:30;;;;;;;3.13;2.00;;;10.20;91.80;;;;;;4940285;28;20444;-75
2021/12/29 10:39:04;;;;;;;5.03;1.90;;;10.30;92.00;;;;;;4941922;28;20495;-74
2021/12/29 10:41:32;;;;;;;9.97;2.13;;;10.30;91.70;;;;;;4946440;28;20471;-74
2021/12/29 10:44:03;;;;;;;4.30;1.90;;;10.30;91.10;;;;;;4949120;28;20443;-75
2021/12/29 10:46:33;;;;;;;6.17;1.80;;;10.30;90.90;;;;;;4944324;28;20843;-75
2021/12/29 10:49:01;;;;;;;3.00;1.53;;;10.30;90.90;;;;;;4945023;28;20860;-75
2021/12/29 10:51:36;;;;;;;2.70;1.50;;;10.20;90.90;;;;;;4947489;28;20451;-73
2021/12/29 10:54:25;;;;;;;3.53;1.70;;;10.30;90.80;;;;;;4951386;28;20470;-74
2021/12/29 10:56:59;;;;;;;7.20;1.97;;;10.30;90.80;;;;;;4960380;28;20424;-74
2021/12/29 10:59:29;;;;;;;3.33;1.50;;;10.30;90.50;;;;;;4958546;28;20479;-74
2021/12/29 11:01:55;;;;;;;2.00;1.20;;;10.30;90.00;;;;;;4960222;28;20431;-74
2021/12/29 11:04:22;;;;;;;4.80;1.93;;;10.30;90.30;;;;;;4954954;28;20442;-73
2021/12/29 11:06:50;;;;;;;3.87;1.80;;;10.30;90.50;;;;;;4953960;28;20207;-74
2021/12/29 11:09:27;;;;;;;4.70;2.07;;;10.30;90.30;;;;;;4955424;28;20993;-75
2021/12/29 11:11:53;;;;;;;3.70;1.80;;;10.30;90.50;;;;;;4950853;28;20442;-74
2021/12/29 11:14:25;;;;;;;2.70;1.70;;;10.40;90.40;;;;;;4952831;28;20462;-73
2021/12/29 11:17:10;;;;;;;1.47;1.37;;;10.40;90.30;;;;;;4949533;28;20431;-75
2021/12/29 11:19:39;;;;;;;3.83;1.20;;;10.40;90.10;;;;;;4942347;28;20539;-74
2021/12/29 11:22:14;;;;;;;2.00;1.53;;;10.40;90.00;;;;;;4948170;28;20455;-75
2021/12/29 11:24:42;;;;;;;6.53;1.73;;;10.40;89.70;;;;;;4944432;28;20437;-77
2021/12/29 11:27:10;;;;;;;2.50;1.70;;;10.40;90.00;;;;;;4950688;28;20419;-74
2021/12/29 11:29:49;;;;;;;5.90;1.57;;;10.40;90.10;;;;;;4944388;28;20424;-75
2021/12/29 11:32:23;;;;;;;1.77;1.40;;;10.50;90.20;;;;;;4955261;28;20497;-74
2021/12/29 11:35:08;;;;;;;4.43;1.37;;;10.50;90.30;;;;;;4938685;28;20926;-73
2021/12/29 11:37:44;;;;;;;4.33;2.03;;;10.60;90.40;;;;;;4946224;28;20427;-75
2021/12/29 11:40:12;;;;;;;6.27;1.40;;;10.50;90.40;;;;;;4950699;28;20462;-75
2021/12/29 11:42:38;;;;;;;3.00;2.00;;;10.50;90.30;;;;;;4941473;28;21290;-74
2021/12/29 11:45:05;;;;;;;5.47;1.87;;;10.50;90.40;;;;;;4943861;28;20546;-75
2021/12/29 11:47:31;;;;;;;3.63;1.20;;;10.50;90.50;;;;;;4944145;28;20211;-73
2021/12/29 11:49:57;;;;;;;4.30;1.60;;;10.50;90.60;;;;;;4945488;28;20899;-74
2021/12/29 11:52:25;;;;;;;4.30;1.40;;;10.50;90.60;;;;;;4942715;28;20466;-74
2021/12/29 11:55:13;;;;;;;4.93;1.30;;;10.40;90.40;;;;;;4949048;28;20446;-73
2021/12/29 11:57:40;;;;;;;3.63;1.57;;;10.40;90.50;;;;;;4951417;28;20505;-75
2021/12/29 12:00:18;;;;;;;3.27;1.50;;;10.40;90.70;;;;;;4946563;28;20519;-73
2021/12/29 12:02:46;;;;;;;3.10;1.43;;;10.30;91.00;;;;;;4943277;28;20510;-73
2021/12/29 12:05:18;;;;;;;2.60;1.40;;;10.40;91.00;;;;;;4939893;28;20432;-75
2021/12/29 12:07:45;;;;;;;4.80;1.53;;;10.40;91.00;;;;;;4941885;28;20429;-74
2021/12/29 12:10:23;;;;;;;6.80;2.50;;;10.50;91.00;;;;;;4942969;28;20428;-75
2021/12/29 12:12:53;;;;;;;5.73;1.70;;;10.60;90.70;;;;;;4946370;28;20958;-74
2021/12/29 12:15:33;;;;;;;5.20;1.60;;;10.60;90.50;;;;;;4943254;28;20497;-74
2021/12/29 12:18:07;;;;;;;21.73;8.60;;;10.60;90.40;;;;;;4951198;28;20482;-74
2021/12/29 12:20:45;;;;;;;9.40;4.27;;;10.70;90.30;;;;;;4944139;28;20791;-73
2021/12/29 12:23:25;;;;;;;14.97;6.37;;;10.80;90.20;;;;;;4948219;28;20448;-73
2021/12/29 12:25:51;;;;;;;12.20;3.90;;;10.80;90.10;;;;;;4951726;28;20419;-75
2021/12/29 12:28:21;;;;;;;4.70;2.67;;;10.90;90.10;;;;;;4947491;28;20438;-75
2021/12/29 12:30:51;;;;;;;7.30;2.53;;;10.90;89.90;;;;;;4947384;28;20423;-74
2021/12/29 12:33:23;;;;;;;3.40;1.90;;;10.90;89.70;;;;;;4944461;28;20569;-72
2021/12/29 12:35:51;;;;;;;3.70;1.50;;;10.90;89.70;;;;;;4946333;28;20432;-73
2021/12/29 12:38:22;;;;;;;2.63;1.97;;;10.90;90.00;;;;;;4948080;28;20526;-74
2021/12/29 12:41:05;;;;;;;7.50;2.27;;;11.00;89.60;;;;;;4952721;28;20430;-74
2021/12/29 12:43:32;;;;;;;4.27;2.13;;;11.00;89.30;;;;;;4952322;28;20431;-75
2021/12/29 12:45:58;;;;;;;3.57;2.10;;;11.00;89.50;;;;;;4941137;28;20419;-74
2021/12/29 12:48:34;;;;;;;6.30;2.43;;;11.00;89.60;;;;;;4949952;28;20431;-74
2021/12/29 12:51:12;;;;;;;12.23;2.37;;;11.00;89.30;;;;;;4942837;28;20192;-74
2021/12/29 12:53:38;;;;;;;3.33;2.07;;;11.00;89.60;;;;;;4951895;28;20479;-75
2021/12/29 12:56:07;;;;;;;6.53;2.33;;;11.10;89.70;;;;;;4948816;28;20423;-74
2021/12/29 12:58:38;;;;;;;7.93;2.70;;;11.10;89.70;;;;;;4942981;28;20709;-76
2021/12/29 13:01:11;;;;;;;5.97;2.87;;;11.20;89.60;;;;;;4947742;28;20511;-73
2021/12/29 13:03:37;;;;;;;8.10;2.27;;;11.20;89.60;;;;;;4948971;28;20440;-75
2021/12/29 13:06:09;;;;;;;6.60;2.57;;;11.10;88.90;;;;;;4946458;28;20435;-75
2021/12/29 13:08:40;;;;;;;6.20;2.60;;;11.10;89.30;;;;;;4951718;28;20423;-74